Ride Results

Kilkivan (22-07-2017)
Ride distance: 80.0 km

Outcomes - Kilkivan (22-07-2017)
Division No. of Entries Retired / DNE Completed Withdrawn Ineligible V/O Percentage Completed
HW 9 - 6 - - 3 66.67%
MW 22 - 18 1 - 3 81.82%
LW 22 - 18 - - 4 81.82%
JN 8 - 8 - - - 100.00%
Totals 61 - 50 1 - 10 81.97%
Results - Kilkivan (22-07-2017)
No. Rider Horse Place Time Leg Speeds Total
Km/Hr
H/R bpm
Heavyweight
28 Olaf Lochtenberg Matta Mia Dayimi 1 (BC) 6:00:00 13.3, 13.3 13.33 30, 40, 43 (Avg:41)
72 Peter Casey Rodborough Amaaya 2 6:04:00 13.3, 13.0 13.19 36, 44, 50 (Avg:47)
57 Nathan Kerrison Performance Park Phantom 3 6:18:00 13.3, 12.1 12.70 36, 44, 47 (Avg:45)
23 Maurice Gray Nathan Park Estasans Legacy 4 6:24:00 13.3, 11.7 12.50 37, 46, 44 (Avg:45)
75 Gavin Bartlett Gheerulla Ambition 5 7:07:00 11.5, 10.9 11.24 36, 44, 46 (Avg:45)
36 Greg Garred Shannonwood Hotlips 5 7:07:00 12.1, 10.4 11.24 32, 44, 50 (Avg:47)
37 Jaime Mansbridge Shannonwood Rana Lame L2 0:00:00 12.1, 10.4 - 32, 48, 48 (Avg:48)
25 Ricky Petersen Longrun Taffeta Lame L2 0:00:00 13.9, 11.3 - 38, 42, 45 (Avg:43)
70 Mark Nimon Alon Dawn Lame L1 0:00:00 16.2 - 33, 51 (Avg:51)
Middleweight
40 Brook Sample Namac Crak A Jak 1 (BC) 4:41:00 17.5, 16.6 17.08 33, 42, 42 (Avg:42)
21 Gayle Holmes Cairo 2 4:52:00 16.6, 16.2 16.44 30, 44, 43 (Avg:43)
30 Linda Lochtenberg Matta Mia Kassanova 3 4:58:00 16.2, 15.9 16.11 37, 48, 50 (Avg:49)
33 Jessyca Dakin Hirstglen Cruisader 4 5:06:00 15.8, 15.4 15.69 36, 34, 34 (Avg:34)
34 Anna de Nys Boonara Tex 4 5:06:00 15.8, 15.4 15.69 34, 41, 46 (Avg:43)
80 Vanessa Gorecki Cedar Ridge Leeroy Brown 6 5:37:00 15.5, 13.1 14.24 38, 45, 42 (Avg:43)
18 Virginia Barber Warregal 7 6:00:00 13.3, 13.3 13.33 30, 43, 50 (Avg:46)
49 Debbie Forsdike Longrun Beijing 8 6:04:00 13.3, 13.0 13.19 35, 38, 44 (Avg:41)
61 Jamie Green No Regret Shocking 9 6:06:00 12.9, 13.3 13.11 34, 43, 43 (Avg:43)
62 Esther Rijkenberg Littlebanks Integrity 9 6:06:00 12.9, 13.3 13.11 31, 44, 46 (Avg:45)
39 Saasha Grogan S'Shaada Taesha 11 6:07:00 13.3, 12.8 13.08 39, 45, 46 (Avg:45)
63 Karen Lee Markus Romulus 12 6:21:00 14.0, 11.4 12.60 36, 42, 53 (Avg:47)
71 Angela Beverley Buck 13 6:57:00 12.6, 10.5 11.51 36, 38, 42 (Avg:40)
20 Peter Pike Omaru Glimmer 14 6:58:00 10.5, 12.5 11.48 35, 43, 55 (Avg:49)
24 Julie Stenhouse Amarillo Park Khaan 15 7:03:00 13.3, 9.8 11.35 36, 47, 59 (Avg:53)
68 Ellie Hill Wyandra 16 7:04:00 12.5, 10.3 11.32 30, 41, 48 (Avg:44)
27 Bridget Macintyre Champ 16 7:04:00 13.1, 9.9 11.32 30, 42, 46 (Avg:44)
76 Olga Bartlett Mt Eerwah Anastazia 18 7:07:00 11.5, 10.9 11.24 28, 38, 42 (Avg:40)
77 Fiona Fenech Glenewan Whisper Lame L2 0:00:00 18.1, 17.9 - 36, 43, 47 (Avg:45)
26 Gwen Bartolo Haaris Withdrawn L1 0:00:00 - - 32, 41 (Avg:41)
44 Barbara Woods Splendacrest Perfection Lame L1 0:00:00 13.7 - 31, 44 (Avg:44)
22 Sue Gurtner Cedarton Achak Abornazine Lame P/R 0:00:00 - - 38
Lightweight
54 Shelley Chapman Touchwarr Kiara 1 4:26:00 18.1, 17.9 18.05 30, 45, 46 (Avg:45)
60 Kaylea Maher A'Landell Ali 2 (BC) 4:41:00 13.5, 23.0 17.08 32, 44, 43 (Avg:43)
35 Leigh Rich Miva Avanti 3 4:58:00 16.6, 15.5 16.11 32, 44, 47 (Avg:45)
16 Sue Sutcliffe Zanes Shadow 3 4:58:00 16.6, 15.5 16.11 32, 38, 44 (Avg:41)
19 Jocelyn Barnes Trinity 5 5:16:00 15.1, 15.1 15.19 34, 44, 51 (Avg:47)
78 Amaya Thomas Riverfire 6 5:39:00 16.6, 12.3 14.16 38, 41, 44 (Avg:42)
64 Victoria Clarke Ardair Skoda 7 5:46:00 13.7, 13.9 13.87 32, 40, 44 (Avg:42)
65 Adriana Sardoni Maloo Vale Amir Halo 7 5:46:00 13.7, 13.9 13.87 37, 40, 47 (Avg:43)
47 Amber Sole Gheerulla Hook 9 6:00:00 13.3, 13.3 13.33 32, 41, 44 (Avg:42)
43 Grace Webb Anglesea Gabriella 10 6:07:00 13.3, 12.8 13.08 36, 44, 48 (Avg:46)
42 Anna Wyroslak Stirling's Genevieve 10 6:07:00 13.3, 12.8 13.08 30, 40, 44 (Avg:42)
50 Jan Tyrrell Steel Poppy Midnight Rum 12 6:13:00 13.3, 12.4 12.87 34, 41, 43 (Avg:42)
66 Ute Jordan Glenewan Blitz 13 6:16:00 13.3, 12.2 12.77 38, 45, 44 (Avg:44)
67 Belinda Redhead Golden Thunder 13 6:16:00 13.3, 12.2 12.77 31, 41, 43 (Avg:42)
58 Christal Rizk Ramalea Magnum 15 6:18:00 13.3, 12.1 12.70 32, 44, 40 (Avg:42)
59 Adrian Brickley Cameo Crimzon Moon 16 6:38:00 12.6, 11.4 12.06 36, 44, 48 (Avg:46)
55 Miki Bell Bashan Kayla 17 6:47:00 13.3, 10.5 11.79 30, 39, 43 (Avg:41)
73 Renee Trunley Misty Day 18 7:01:00 12.9, 10.2 11.40 38, 42, 2 (Avg:22)
69 Janelle Taylor Elite Samaree Lame L2 0:00:00 12.6, 10.5 - 34, 42, 58 (Avg:50)
46 Pandora Bevan Miva Karazeh Lame L1 0:00:00 13.3 - 30, 48 (Avg:48)
74 Shannon Hill DBA C Zar Lame L1 0:00:00 13.3 - 38, 44 (Avg:44)
48 Amanda Powell Zenith Park Qadir Lame L1 0:00:00 12.5 - 30, 42 (Avg:42)
Junior
79 Emma Dimech Indiana Seabreeze 1 4:52:00 16.6, 16.2 16.44 40, 46, 38 (Avg:42)
32 Alissa Woods Hirstglen Herbie 2 (BC) 5:06:00 15.8, 15.4 15.69 29, 35, 43 (Avg:39)
17 Georgie Barber Concerto 3 6:00:00 13.3, 13.3 13.33 38, 42, 50 (Avg:46)
31 Tahlea Lochtenberg Henley Farm Bard 3 6:00:00 13.3, 13.3 13.33 35, 44, 42 (Avg:43)
52 Ben Hoey Cameo Periclez 5 6:41:00 12.6, 11.3 11.97 32, 44, 39 (Avg:41)
56 Hailie Hanson Bashan Silver Nadeer 6 6:47:00 11.8, 11.7 11.79 34, 38, 39 (Avg:38)
81 Molly Choyce Lindall Las Vegas 7 7:01:00 12.9, 10.2 11.40 50, 28, 46 (Avg:37)
38 Hope Mansbridge Shannonwood Perseus 8 7:07:00 12.1, 10.4 11.24 36, 43, 57 (Avg:50)